createdAt,value
2022-11-15T00:00:22.928Z,54.80
2022-11-15T00:00:49.202Z,54.80
2022-11-15T00:01:19.927Z,54.80
2022-11-15T00:01:45.854Z,54.90
2022-11-15T00:02:11.816Z,54.90
2022-11-15T00:02:37.818Z,54.70
2022-11-15T00:03:03.807Z,54.70
2022-11-15T00:03:29.988Z,54.60
2022-11-15T00:03:56.274Z,54.60
2022-11-15T00:04:22.196Z,54.60
2022-11-15T00:04:48.240Z,54.60
2022-11-15T00:05:14.456Z,54.60
2022-11-15T00:05:40.243Z,54.60
2022-11-15T00:06:06.658Z,54.60
2022-11-15T00:06:32.810Z,54.60
2022-11-15T00:07:04.299Z,54.60
2022-11-15T00:07:54.489Z,54.60
2022-11-15T00:08:18.371Z,54.60
2022-11-15T00:08:44.537Z,54.50
2022-11-15T00:09:10.371Z,54.50
2022-11-15T00:09:36.584Z,54.60
2022-11-15T00:10:02.825Z,54.60
2022-11-15T00:10:29.002Z,54.60
2022-11-15T00:11:00.038Z,54.50
2022-11-15T00:11:26.199Z,54.60
2022-11-15T00:11:53.174Z,54.60
2022-11-15T00:12:18.829Z,54.70
2022-11-15T00:12:44.996Z,54.70
2022-11-15T00:13:13.524Z,54.80
2022-11-15T00:13:39.668Z,54.80
2022-11-15T00:14:05.493Z,54.80
2022-11-15T00:14:31.368Z,54.90
2022-11-15T00:14:57.395Z,54.80
2022-11-15T00:15:26.162Z,54.80
2022-11-15T00:15:52.311Z,54.80
2022-11-15T00:16:18.537Z,54.90
2022-11-15T00:16:44.434Z,54.80
2022-11-15T00:17:10.297Z,54.70
2022-11-15T00:17:36.334Z,54.70
2022-11-15T00:18:02.370Z,54.70
2022-11-15T00:18:29.677Z,54.70
2022-11-15T00:18:55.816Z,54.70
2022-11-15T00:19:21.523Z,54.70
2022-11-15T00:19:47.598Z,54.80
2022-11-15T00:20:14.051Z,54.70
2022-11-15T00:20:44.034Z,54.70
2022-11-15T00:21:15.570Z,54.80
2022-11-15T00:21:41.567Z,54.80
2022-11-15T00:22:07.363Z,55.00
2022-11-15T00:22:35.094Z,55.00
2022-11-15T00:23:01.171Z,55.10
2022-11-15T00:23:26.961Z,55.20
2022-11-15T00:23:52.749Z,55.20
2022-11-15T00:24:18.831Z,55.30
2022-11-15T00:24:44.786Z,55.30
2022-11-15T00:25:11.018Z,55.30
2022-11-15T00:25:36.988Z,55.30
2022-11-15T00:26:03.301Z,55.30
2022-11-15T00:26:30.023Z,55.30
2022-11-15T00:26:56.304Z,55.40
2022-11-15T00:27:23.445Z,55.40
2022-11-15T00:27:49.477Z,55.40
2022-11-15T00:28:18.235Z,55.40
2022-11-15T00:28:44.547Z,55.40
2022-11-15T00:29:10.263Z,55.40
2022-11-15T00:29:36.083Z,55.40
2022-11-15T00:30:01.909Z,55.50
2022-11-15T00:30:29.790Z,55.50
2022-11-15T00:31:01.083Z,55.50
2022-11-15T00:31:27.044Z,55.60
2022-11-15T00:31:53.659Z,55.60
2022-11-15T00:32:19.687Z,56.50
2022-11-15T00:32:45.479Z,55.60
2022-11-15T00:33:11.723Z,55.70
2022-11-15T00:33:37.721Z,55.70
2022-11-15T00:34:04.423Z,55.80
2022-11-15T00:34:30.183Z,56.00
2022-11-15T00:34:56.162Z,56.10
2022-11-15T00:35:22.725Z,56.10
2022-11-15T00:35:48.562Z,56.30
2022-11-15T00:36:14.494Z,56.30
2022-11-15T00:36:40.584Z,56.40
2022-11-15T00:37:08.685Z,56.40
2022-11-15T00:37:34.567Z,56.40
2022-11-15T00:38:01.232Z,56.50
2022-11-15T00:38:27.103Z,56.60
2022-11-15T00:38:52.825Z,56.50
2022-11-15T00:39:18.728Z,56.50
2022-11-15T00:39:45.456Z,56.50
2022-11-15T00:40:14.037Z,56.50
2022-11-15T00:40:39.751Z,56.60
2022-11-15T00:41:09.578Z,56.70
2022-11-15T00:41:36.003Z,56.80
2022-11-15T00:42:01.786Z,56.90
2022-11-15T00:42:27.773Z,57.00
2022-11-15T00:42:53.810Z,57.00
2022-11-15T00:43:22.642Z,57.00
2022-11-15T00:43:48.790Z,56.90
2022-11-15T00:44:14.649Z,56.90
2022-11-15T00:44:40.808Z,57.00
2022-11-15T00:45:07.536Z,57.10
2022-11-15T00:45:33.563Z,57.10
2022-11-15T00:45:59.860Z,57.10
2022-11-15T00:46:25.980Z,57.20
2022-11-15T00:46:51.962Z,57.20
2022-11-15T00:47:17.824Z,57.20
2022-11-15T00:47:47.178Z,57.20
2022-11-15T00:48:13.118Z,57.30
2022-11-15T00:48:39.883Z,57.30
2022-11-15T00:49:05.970Z,57.40
2022-11-15T00:49:31.740Z,57.40
2022-11-15T00:49:57.945Z,57.40
2022-11-15T00:50:24.011Z,57.50
2022-11-15T00:50:50.664Z,57.60
2022-11-15T00:51:16.496Z,57.70
2022-11-15T00:51:42.653Z,57.60
2022-11-15T00:52:08.714Z,57.50
2022-11-15T00:52:34.664Z,57.50
2022-11-15T00:53:00.487Z,57.60
2022-11-15T00:53:26.532Z,57.60
2022-11-15T00:53:52.531Z,57.60
2022-11-15T00:54:18.625Z,57.60
2022-11-15T00:54:44.798Z,57.60
2022-11-15T00:55:20.540Z,57.60
2022-11-15T00:55:46.320Z,57.60
2022-11-15T00:56:12.500Z,57.70
2022-11-15T00:56:38.490Z,57.70
2022-11-15T00:57:04.252Z,57.80
2022-11-15T00:57:30.220Z,57.90
2022-11-15T00:57:56.323Z,57.90
2022-11-15T00:58:22.157Z,57.90
2022-11-15T00:58:48.287Z,58.00
2022-11-15T00:59:14.058Z,57.90
2022-11-15T00:59:39.832Z,57.90
2022-11-15T01:00:08.358Z,58.00
2022-11-15T01:00:34.741Z,58.00
2022-11-15T01:01:14.365Z,58.00
2022-11-15T01:01:40.600Z,58.00
